sensor_id;sensor_type;location;lat;lon;timestamp;P1;durP1;ratioP1;P2;durP2;ratioP2
45476;SDS011;31958;51.756;-2.556;2022-07-29T00:01:30;10.15;;;4.30;;
45476;SDS011;31958;51.756;-2.556;2022-07-29T00:03:56;6.00;;;4.20;;
45476;SDS011;31958;51.756;-2.556;2022-07-29T00:06:21;9.07;;;3.80;;
45476;SDS011;31958;51.756;-2.556;2022-07-29T00:08:46;6.13;;;3.60;;
45476;SDS011;31958;51.756;-2.556;2022-07-29T00:11:12;9.15;;;3.40;;
45476;SDS011;31958;51.756;-2.556;2022-07-29T00:13:37;6.15;;;3.83;;
45476;SDS011;31958;51.756;-2.556;2022-07-29T00:16:02;7.57;;;3.65;;
45476;SDS011;31958;51.756;-2.556;2022-07-29T00:18:28;8.13;;;3.80;;
45476;SDS011;31958;51.756;-2.556;2022-07-29T00:20:53;4.90;;;3.42;;
45476;SDS011;31958;51.756;-2.556;2022-07-29T00:23:18;8.18;;;3.75;;
45476;SDS011;31958;51.756;-2.556;2022-07-29T00:25:43;5.40;;;3.92;;
45476;SDS011;31958;51.756;-2.556;2022-07-29T00:28:09;11.63;;;3.70;;
45476;SDS011;31958;51.756;-2.556;2022-07-29T00:30:34;9.98;;;4.03;;
45476;SDS011;31958;51.756;-2.556;2022-07-29T00:32:59;7.35;;;3.80;;
45476;SDS011;31958;51.756;-2.556;2022-07-29T00:35:25;6.05;;;3.40;;
45476;SDS011;31958;51.756;-2.556;2022-07-29T00:38:08;6.55;;;3.67;;
45476;SDS011;31958;51.756;-2.556;2022-07-29T00:40:33;6.93;;;3.45;;
45476;SDS011;31958;51.756;-2.556;2022-07-29T00:42:59;6.63;;;3.78;;
45476;SDS011;31958;51.756;-2.556;2022-07-29T00:45:24;6.18;;;3.80;;
45476;SDS011;31958;51.756;-2.556;2022-07-29T00:47:50;6.88;;;3.88;;
45476;SDS011;31958;51.756;-2.556;2022-07-29T00:50:15;5.05;;;3.65;;
45476;SDS011;31958;51.756;-2.556;2022-07-29T00:52:41;7.45;;;3.30;;
45476;SDS011;31958;51.756;-2.556;2022-07-29T00:55:08;6.10;;;3.53;;
45476;SDS011;31958;51.756;-2.556;2022-07-29T00:57:34;8.70;;;3.80;;
45476;SDS011;31958;51.756;-2.556;2022-07-29T00:59:59;6.05;;;3.60;;
45476;SDS011;31958;51.756;-2.556;2022-07-29T01:02:25;9.38;;;3.90;;
45476;SDS011;31958;51.756;-2.556;2022-07-29T01:04:50;7.05;;;3.45;;
45476;SDS011;31958;51.756;-2.556;2022-07-29T01:07:17;6.18;;;3.80;;
45476;SDS011;31958;51.756;-2.556;2022-07-29T01:09:42;5.70;;;3.75;;
45476;SDS011;31958;51.756;-2.556;2022-07-29T01:12:08;6.45;;;3.63;;
45476;SDS011;31958;51.756;-2.556;2022-07-29T01:14:34;7.57;;;3.58;;
45476;SDS011;31958;51.756;-2.556;2022-07-29T01:17:01;5.32;;;3.67;;
45476;SDS011;31958;51.756;-2.556;2022-07-29T01:21:59;7.25;;;3.88;;
45476;SDS011;31958;51.756;-2.556;2022-07-29T01:27:21;10.38;;;4.15;;
45476;SDS011;31958;51.756;-2.556;2022-07-29T01:29:55;7.80;;;3.67;;
45476;SDS011;31958;51.756;-2.556;2022-07-29T01:32:25;5.00;;;3.30;;
45476;SDS011;31958;51.756;-2.556;2022-07-29T01:34:53;6.38;;;3.83;;
45476;SDS011;31958;51.756;-2.556;2022-07-29T01:37:23;7.80;;;3.63;;
45476;SDS011;31958;51.756;-2.556;2022-07-29T01:39:51;7.40;;;3.90;;
45476;SDS011;31958;51.756;-2.556;2022-07-29T01:42:23;6.85;;;3.70;;
45476;SDS011;31958;51.756;-2.556;2022-07-29T01:47:45;4.88;;;3.60;;
45476;SDS011;31958;51.756;-2.556;2022-07-29T01:50:13;6.72;;;3.60;;
45476;SDS011;31958;51.756;-2.556;2022-07-29T01:52:42;5.22;;;3.70;;
45476;SDS011;31958;51.756;-2.556;2022-07-29T01:55:12;5.88;;;3.67;;
45476;SDS011;31958;51.756;-2.556;2022-07-29T01:57:38;8.30;;;4.45;;
45476;SDS011;31958;51.756;-2.556;2022-07-29T02:00:05;6.53;;;4.03;;
45476;SDS011;31958;51.756;-2.556;2022-07-29T02:02:31;7.28;;;3.88;;
45476;SDS011;31958;51.756;-2.556;2022-07-29T02:04:57;7.00;;;4.03;;
45476;SDS011;31958;51.756;-2.556;2022-07-29T02:07:24;5.93;;;3.67;;
45476;SDS011;31958;51.756;-2.556;2022-07-29T02:09:50;7.18;;;3.65;;
45476;SDS011;31958;51.756;-2.556;2022-07-29T02:12:16;7.72;;;3.55;;
45476;SDS011;31958;51.756;-2.556;2022-07-29T02:14:47;6.85;;;3.60;;
45476;SDS011;31958;51.756;-2.556;2022-07-29T02:17:13;8.50;;;4.05;;
45476;SDS011;31958;51.756;-2.556;2022-07-29T02:19:38;7.50;;;3.85;;
45476;SDS011;31958;51.756;-2.556;2022-07-29T02:22:05;9.63;;;3.63;;
45476;SDS011;31958;51.756;-2.556;2022-07-29T02:24:31;8.68;;;3.95;;
45476;SDS011;31958;51.756;-2.556;2022-07-29T02:26:58;8.32;;;4.30;;
45476;SDS011;31958;51.756;-2.556;2022-07-29T02:29:26;7.68;;;3.88;;
45476;SDS011;31958;51.756;-2.556;2022-07-29T02:31:53;7.70;;;3.88;;
45476;SDS011;31958;51.756;-2.556;2022-07-29T02:34:20;5.90;;;3.60;;
45476;SDS011;31958;51.756;-2.556;2022-07-29T02:36:46;7.85;;;3.75;;
45476;SDS011;31958;51.756;-2.556;2022-07-29T02:39:12;5.78;;;3.80;;
45476;SDS011;31958;51.756;-2.556;2022-07-29T02:41:48;6.70;;;4.25;;
45476;SDS011;31958;51.756;-2.556;2022-07-29T02:44:14;5.97;;;4.13;;
45476;SDS011;31958;51.756;-2.556;2022-07-29T02:47:02;6.22;;;4.07;;
45476;SDS011;31958;51.756;-2.556;2022-07-29T02:49:42;9.57;;;4.35;;
45476;SDS011;31958;51.756;-2.556;2022-07-29T02:52:12;11.73;;;4.60;;
45476;SDS011;31958;51.756;-2.556;2022-07-29T02:54:42;9.13;;;4.88;;
45476;SDS011;31958;51.756;-2.556;2022-07-29T02:57:11;14.80;;;5.10;;
45476;SDS011;31958;51.756;-2.556;2022-07-29T02:59:38;7.88;;;5.13;;
45476;SDS011;31958;51.756;-2.556;2022-07-29T03:02:07;8.70;;;5.20;;
45476;SDS011;31958;51.756;-2.556;2022-07-29T03:04:33;10.23;;;5.05;;
45476;SDS011;31958;51.756;-2.556;2022-07-29T03:06:59;11.23;;;5.70;;
45476;SDS011;31958;51.756;-2.556;2022-07-29T03:09:25;11.85;;;5.45;;
45476;SDS011;31958;51.756;-2.556;2022-07-29T03:11:52;12.68;;;6.32;;
45476;SDS011;31958;51.756;-2.556;2022-07-29T03:14:19;10.73;;;5.45;;
45476;SDS011;31958;51.756;-2.556;2022-07-29T03:16:45;14.00;;;6.38;;
45476;SDS011;31958;51.756;-2.556;2022-07-29T03:19:10;10.65;;;6.70;;
45476;SDS011;31958;51.756;-2.556;2022-07-29T03:21:35;11.50;;;6.30;;
45476;SDS011;31958;51.756;-2.556;2022-07-29T03:24:01;12.55;;;6.60;;
45476;SDS011;31958;51.756;-2.556;2022-07-29T03:26:26;12.48;;;6.90;;
45476;SDS011;31958;51.756;-2.556;2022-07-29T03:28:51;12.88;;;7.47;;
45476;SDS011;31958;51.756;-2.556;2022-07-29T03:31:17;11.30;;;7.53;;
45476;SDS011;31958;51.756;-2.556;2022-07-29T03:33:42;12.10;;;6.75;;
45476;SDS011;31958;51.756;-2.556;2022-07-29T03:36:07;13.13;;;7.95;;
45476;SDS011;31958;51.756;-2.556;2022-07-29T03:38:33;10.68;;;7.03;;
45476;SDS011;31958;51.756;-2.556;2022-07-29T03:41:02;13.27;;;7.45;;
45476;SDS011;31958;51.756;-2.556;2022-07-29T03:43:29;15.27;;;7.32;;
45476;SDS011;31958;51.756;-2.556;2022-07-29T03:45:55;13.43;;;7.95;;
45476;SDS011;31958;51.756;-2.556;2022-07-29T03:48:22;16.15;;;8.15;;
45476;SDS011;31958;51.756;-2.556;2022-07-29T03:50:49;15.40;;;8.23;;
45476;SDS011;31958;51.756;-2.556;2022-07-29T03:53:15;17.08;;;8.75;;
45476;SDS011;31958;51.756;-2.556;2022-07-29T03:55:41;17.50;;;8.00;;
45476;SDS011;31958;51.756;-2.556;2022-07-29T03:58:07;12.93;;;7.97;;
45476;SDS011;31958;51.756;-2.556;2022-07-29T04:00:34;14.65;;;8.05;;
45476;SDS011;31958;51.756;-2.556;2022-07-29T04:03:00;13.82;;;7.70;;
45476;SDS011;31958;51.756;-2.556;2022-07-29T04:05:25;17.23;;;8.63;;
45476;SDS011;31958;51.756;-2.556;2022-07-29T04:07:50;15.57;;;8.38;;
45476;SDS011;31958;51.756;-2.556;2022-07-29T04:10:16;15.25;;;8.57;;
45476;SDS011;31958;51.756;-2.556;2022-07-29T04:12:42;14.35;;;8.45;;
45476;SDS011;31958;51.756;-2.556;2022-07-29T04:15:07;16.48;;;8.77;;
45476;SDS011;31958;51.756;-2.556;2022-07-29T04:17:33;14.32;;;7.93;;
45476;SDS011;31958;51.756;-2.556;2022-07-29T04:19:58;13.50;;;8.40;;
45476;SDS011;31958;51.756;-2.556;2022-07-29T04:22:24;13.55;;;8.27;;
45476;SDS011;31958;51.756;-2.556;2022-07-29T04:24:49;13.90;;;7.75;;
45476;SDS011;31958;51.756;-2.556;2022-07-29T04:27:14;14.55;;;7.78;;
45476;SDS011;31958;51.756;-2.556;2022-07-29T04:29:39;15.55;;;8.25;;
45476;SDS011;31958;51.756;-2.556;2022-07-29T04:32:05;15.18;;;8.65;;
45476;SDS011;31958;51.756;-2.556;2022-07-29T04:34:30;18.63;;;8.90;;
45476;SDS011;31958;51.756;-2.556;2022-07-29T04:36:56;17.55;;;8.68;;
45476;SDS011;31958;51.756;-2.556;2022-07-29T04:39:21;16.42;;;8.00;;
45476;SDS011;31958;51.756;-2.556;2022-07-29T04:41:46;16.13;;;8.57;;
45476;SDS011;31958;51.756;-2.556;2022-07-29T04:44:12;16.70;;;9.15;;
45476;SDS011;31958;51.756;-2.556;2022-07-29T04:46:37;17.60;;;8.93;;
45476;SDS011;31958;51.756;-2.556;2022-07-29T04:49:03;16.90;;;9.02;;
45476;SDS011;31958;51.756;-2.556;2022-07-29T04:51:28;14.90;;;9.52;;
45476;SDS011;31958;51.756;-2.556;2022-07-29T04:53:53;20.52;;;9.57;;
45476;SDS011;31958;51.756;-2.556;2022-07-29T04:56:19;18.08;;;8.75;;
45476;SDS011;31958;51.756;-2.556;2022-07-29T04:58:44;14.45;;;8.68;;
45476;SDS011;31958;51.756;-2.556;2022-07-29T05:01:09;18.02;;;9.00;;
45476;SDS011;31958;51.756;-2.556;2022-07-29T05:03:34;15.82;;;9.18;;
45476;SDS011;31958;51.756;-2.556;2022-07-29T05:06:00;17.15;;;9.50;;
45476;SDS011;31958;51.756;-2.556;2022-07-29T05:08:25;18.67;;;9.75;;
45476;SDS011;31958;51.756;-2.556;2022-07-29T05:10:50;18.33;;;10.05;;
45476;SDS011;31958;51.756;-2.556;2022-07-29T05:13:16;16.55;;;8.43;;
45476;SDS011;31958;51.756;-2.556;2022-07-29T05:15:41;16.63;;;8.48;;
45476;SDS011;31958;51.756;-2.556;2022-07-29T05:18:06;13.98;;;7.65;;
45476;SDS011;31958;51.756;-2.556;2022-07-29T05:20:32;11.60;;;7.78;;
45476;SDS011;31958;51.756;-2.556;2022-07-29T05:22:59;12.52;;;7.50;;
45476;SDS011;31958;51.756;-2.556;2022-07-29T05:25:25;13.07;;;7.20;;
45476;SDS011;31958;51.756;-2.556;2022-07-29T05:27:51;10.02;;;6.55;;
45476;SDS011;31958;51.756;-2.556;2022-07-29T05:30:16;13.30;;;7.28;;
45476;SDS011;31958;51.756;-2.556;2022-07-29T05:32:41;12.75;;;6.50;;
45476;SDS011;31958;51.756;-2.556;2022-07-29T05:35:07;10.93;;;6.63;;
45476;SDS011;31958;51.756;-2.556;2022-07-29T05:37:33;10.50;;;6.55;;
45476;SDS011;31958;51.756;-2.556;2022-07-29T05:39:58;10.85;;;6.07;;
45476;SDS011;31958;51.756;-2.556;2022-07-29T05:42:24;9.70;;;6.13;;
45476;SDS011;31958;51.756;-2.556;2022-07-29T05:44:49;12.23;;;6.60;;
45476;SDS011;31958;51.756;-2.556;2022-07-29T05:47:14;12.70;;;6.60;;
45476;SDS011;31958;51.756;-2.556;2022-07-29T05:49:40;9.18;;;5.82;;
45476;SDS011;31958;51.756;-2.556;2022-07-29T05:52:06;15.20;;;5.65;;
45476;SDS011;31958;51.756;-2.556;2022-07-29T05:54:31;15.48;;;6.07;;
45476;SDS011;31958;51.756;-2.556;2022-07-29T05:56:56;10.05;;;6.32;;
45476;SDS011;31958;51.756;-2.556;2022-07-29T05:59:22;16.73;;;5.72;;
45476;SDS011;31958;51.756;-2.556;2022-07-29T06:01:47;11.10;;;5.18;;
45476;SDS011;31958;51.756;-2.556;2022-07-29T06:04:12;7.88;;;4.65;;
45476;SDS011;31958;51.756;-2.556;2022-07-29T06:06:38;8.77;;;4.50;;
45476;SDS011;31958;51.756;-2.556;2022-07-29T06:09:03;6.53;;;4.30;;
45476;SDS011;31958;51.756;-2.556;2022-07-29T06:11:28;4.57;;;3.13;;
45476;SDS011;31958;51.756;-2.556;2022-07-29T06:13:54;5.25;;;2.63;;
45476;SDS011;31958;51.756;-2.556;2022-07-29T06:16:19;4.47;;;2.30;;
45476;SDS011;31958;51.756;-2.556;2022-07-29T06:18:44;3.45;;;2.33;;
45476;SDS011;31958;51.756;-2.556;2022-07-29T06:21:10;4.28;;;2.20;;
45476;SDS011;31958;51.756;-2.556;2022-07-29T06:23:39;3.22;;;1.88;;
45476;SDS011;31958;51.756;-2.556;2022-07-29T06:26:04;3.45;;;1.90;;
45476;SDS011;31958;51.756;-2.556;2022-07-29T06:28:30;4.07;;;1.88;;
45476;SDS011;31958;51.756;-2.556;2022-07-29T06:30:55;3.40;;;1.80;;
45476;SDS011;31958;51.756;-2.556;2022-07-29T06:33:21;4.10;;;2.17;;
45476;SDS011;31958;51.756;-2.556;2022-07-29T06:35:46;3.85;;;1.70;;
45476;SDS011;31958;51.756;-2.556;2022-07-29T06:38:12;3.83;;;1.77;;
45476;SDS011;31958;51.756;-2.556;2022-07-29T06:40:40;2.75;;;1.60;;
45476;SDS011;31958;51.756;-2.556;2022-07-29T06:43:24;2.47;;;1.60;;
45476;SDS011;31958;51.756;-2.556;2022-07-29T06:45:49;6.45;;;1.90;;
45476;SDS011;31958;51.756;-2.556;2022-07-29T06:48:14;2.92;;;1.63;;
45476;SDS011;31958;51.756;-2.556;2022-07-29T06:50:39;3.35;;;1.73;;
45476;SDS011;31958;51.756;-2.556;2022-07-29T06:53:05;6.35;;;2.00;;
45476;SDS011;31958;51.756;-2.556;2022-07-29T06:55:30;3.13;;;1.63;;
45476;SDS011;31958;51.756;-2.556;2022-07-29T06:57:56;5.25;;;1.83;;
45476;SDS011;31958;51.756;-2.556;2022-07-29T07:00:21;4.40;;;1.90;;
45476;SDS011;31958;51.756;-2.556;2022-07-29T07:02:46;3.97;;;1.80;;
45476;SDS011;31958;51.756;-2.556;2022-07-29T07:05:12;4.03;;;2.00;;
45476;SDS011;31958;51.756;-2.556;2022-07-29T07:07:37;3.40;;;1.60;;
45476;SDS011;31958;51.756;-2.556;2022-07-29T07:10:02;4.40;;;2.08;;
45476;SDS011;31958;51.756;-2.556;2022-07-29T07:12:28;6.05;;;1.98;;
45476;SDS011;31958;51.756;-2.556;2022-07-29T07:14:53;4.25;;;2.00;;
45476;SDS011;31958;51.756;-2.556;2022-07-29T07:17:18;4.07;;;2.00;;
45476;SDS011;31958;51.756;-2.556;2022-07-29T07:19:44;5.07;;;2.10;;
45476;SDS011;31958;51.756;-2.556;2022-07-29T07:22:10;3.47;;;1.67;;
45476;SDS011;31958;51.756;-2.556;2022-07-29T07:24:35;7.35;;;2.08;;
45476;SDS011;31958;51.756;-2.556;2022-07-29T07:27:00;8.45;;;2.15;;
45476;SDS011;31958;51.756;-2.556;2022-07-29T07:29:26;4.63;;;2.10;;
45476;SDS011;31958;51.756;-2.556;2022-07-29T07:31:52;8.43;;;2.40;;
45476;SDS011;31958;51.756;-2.556;2022-07-29T07:34:17;5.90;;;2.20;;
45476;SDS011;31958;51.756;-2.556;2022-07-29T07:36:42;7.28;;;2.55;;
45476;SDS011;31958;51.756;-2.556;2022-07-29T07:39:08;9.02;;;2.20;;
45476;SDS011;31958;51.756;-2.556;2022-07-29T07:41:33;7.05;;;2.10;;
45476;SDS011;31958;51.756;-2.556;2022-07-29T07:43:59;4.95;;;2.30;;
45476;SDS011;31958;51.756;-2.556;2022-07-29T07:46:24;5.57;;;2.10;;
45476;SDS011;31958;51.756;-2.556;2022-07-29T07:48:49;5.72;;;2.03;;
45476;SDS011;31958;51.756;-2.556;2022-07-29T07:51:14;6.25;;;1.90;;
45476;SDS011;31958;51.756;-2.556;2022-07-29T07:53:40;6.45;;;2.00;;
45476;SDS011;31958;51.756;-2.556;2022-07-29T07:56:05;6.65;;;1.98;;
45476;SDS011;31958;51.756;-2.556;2022-07-29T07:58:31;6.25;;;2.15;;
45476;SDS011;31958;51.756;-2.556;2022-07-29T08:00:56;3.72;;;1.77;;
45476;SDS011;31958;51.756;-2.556;2022-07-29T08:03:22;6.53;;;2.20;;
45476;SDS011;31958;51.756;-2.556;2022-07-29T08:05:47;7.40;;;1.90;;
45476;SDS011;31958;51.756;-2.556;2022-07-29T08:08:13;5.38;;;1.80;;
45476;SDS011;31958;51.756;-2.556;2022-07-29T08:10:38;6.43;;;2.13;;
45476;SDS011;31958;51.756;-2.556;2022-07-29T08:13:21;9.40;;;2.25;;
45476;SDS011;31958;51.756;-2.556;2022-07-29T08:15:46;4.20;;;1.80;;
45476;SDS011;31958;51.756;-2.556;2022-07-29T08:18:12;9.07;;;2.10;;
45476;SDS011;31958;51.756;-2.556;2022-07-29T08:20:38;6.55;;;2.00;;
45476;SDS011;31958;51.756;-2.556;2022-07-29T08:23:04;7.38;;;2.03;;
45476;SDS011;31958;51.756;-2.556;2022-07-29T08:25:31;5.10;;;2.10;;
45476;SDS011;31958;51.756;-2.556;2022-07-29T08:27:56;6.18;;;2.08;;
45476;SDS011;31958;51.756;-2.556;2022-07-29T08:30:22;7.47;;;2.20;;
45476;SDS011;31958;51.756;-2.556;2022-07-29T08:32:47;5.95;;;2.28;;
45476;SDS011;31958;51.756;-2.556;2022-07-29T08:35:13;9.98;;;2.03;;
45476;SDS011;31958;51.756;-2.556;2022-07-29T08:37:38;5.97;;;1.88;;
45476;SDS011;31958;51.756;-2.556;2022-07-29T08:40:03;6.43;;;2.05;;
45476;SDS011;31958;51.756;-2.556;2022-07-29T08:42:29;8.50;;;2.38;;
45476;SDS011;31958;51.756;-2.556;2022-07-29T08:44:55;9.45;;;2.13;;
45476;SDS011;31958;51.756;-2.556;2022-07-29T08:47:21;4.93;;;2.30;;
45476;SDS011;31958;51.756;-2.556;2022-07-29T08:49:47;7.07;;;2.10;;
45476;SDS011;31958;51.756;-2.556;2022-07-29T08:52:13;7.13;;;2.13;;
45476;SDS011;31958;51.756;-2.556;2022-07-29T08:54:39;9.52;;;2.00;;
45476;SDS011;31958;51.756;-2.556;2022-07-29T08:57:04;6.32;;;2.17;;
45476;SDS011;31958;51.756;-2.556;2022-07-29T08:59:30;7.78;;;2.47;;
45476;SDS011;31958;51.756;-2.556;2022-07-29T09:01:56;9.95;;;2.33;;
45476;SDS011;31958;51.756;-2.556;2022-07-29T09:04:24;6.90;;;2.40;;
45476;SDS011;31958;51.756;-2.556;2022-07-29T09:06:51;5.40;;;2.10;;
45476;SDS011;31958;51.756;-2.556;2022-07-29T09:09:17;7.78;;;2.60;;
45476;SDS011;31958;51.756;-2.556;2022-07-29T09:11:42;12.52;;;2.40;;
45476;SDS011;31958;51.756;-2.556;2022-07-29T09:14:07;8.15;;;2.00;;
45476;SDS011;31958;51.756;-2.556;2022-07-29T09:19:22;8.93;;;2.40;;
45476;SDS011;31958;51.756;-2.556;2022-07-29T09:21:47;9.20;;;2.33;;
45476;SDS011;31958;51.756;-2.556;2022-07-29T09:27:00;11.32;;;2.40;;
45476;SDS011;31958;51.756;-2.556;2022-07-29T09:29:25;8.88;;;2.13;;
45476;SDS011;31958;51.756;-2.556;2022-07-29T09:31:52;6.85;;;2.20;;
45476;SDS011;31958;51.756;-2.556;2022-07-29T09:34:25;6.30;;;2.28;;
45476;SDS011;31958;51.756;-2.556;2022-07-29T09:36:51;12.20;;;2.40;;
45476;SDS011;31958;51.756;-2.556;2022-07-29T09:39:26;5.78;;;2.20;;
45476;SDS011;31958;51.756;-2.556;2022-07-29T09:41:53;38.88;;;3.25;;
45476;SDS011;31958;51.756;-2.556;2022-07-29T09:44:19;10.98;;;2.30;;
45476;SDS011;31958;51.756;-2.556;2022-07-29T09:47:01;7.60;;;1.85;;
45476;SDS011;31958;51.756;-2.556;2022-07-29T09:49:33;4.68;;;2.20;;
45476;SDS011;31958;51.756;-2.556;2022-07-29T09:52:00;5.15;;;2.25;;
45476;SDS011;31958;51.756;-2.556;2022-07-29T09:54:26;6.30;;;2.08;;
45476;SDS011;31958;51.756;-2.556;2022-07-29T09:56:52;7.55;;;2.50;;
45476;SDS011;31958;51.756;-2.556;2022-07-29T09:59:18;10.27;;;2.10;;
45476;SDS011;31958;51.756;-2.556;2022-07-29T10:01:45;7.03;;;2.25;;
45476;SDS011;31958;51.756;-2.556;2022-07-29T10:04:11;8.13;;;2.30;;
45476;SDS011;31958;51.756;-2.556;2022-07-29T10:06:40;11.13;;;2.53;;
45476;SDS011;31958;51.756;-2.556;2022-07-29T10:09:19;9.32;;;2.30;;
45476;SDS011;31958;51.756;-2.556;2022-07-29T10:11:56;10.20;;;2.35;;
45476;SDS011;31958;51.756;-2.556;2022-07-29T10:14:27;4.57;;;2.00;;
45476;SDS011;31958;51.756;-2.556;2022-07-29T10:16:52;3.92;;;1.70;;
45476;SDS011;31958;51.756;-2.556;2022-07-29T10:19:18;7.75;;;2.20;;
45476;SDS011;31958;51.756;-2.556;2022-07-29T10:21:44;9.48;;;2.55;;
45476;SDS011;31958;51.756;-2.556;2022-07-29T10:24:09;7.07;;;2.20;;
45476;SDS011;31958;51.756;-2.556;2022-07-29T10:26:35;5.90;;;2.20;;
45476;SDS011;31958;51.756;-2.556;2022-07-29T10:29:02;10.55;;;2.40;;
45476;SDS011;31958;51.756;-2.556;2022-07-29T10:31:34;7.28;;;2.53;;
45476;SDS011;31958;51.756;-2.556;2022-07-29T10:34:23;6.45;;;1.98;;
45476;SDS011;31958;51.756;-2.556;2022-07-29T10:36:54;11.57;;;2.47;;
45476;SDS011;31958;51.756;-2.556;2022-07-29T10:39:32;5.72;;;1.98;;
45476;SDS011;31958;51.756;-2.556;2022-07-29T10:44:34;7.95;;;2.17;;
45476;SDS011;31958;51.756;-2.556;2022-07-29T10:47:00;9.45;;;2.50;;
45476;SDS011;31958;51.756;-2.556;2022-07-29T10:49:25;6.10;;;2.10;;
45476;SDS011;31958;51.756;-2.556;2022-07-29T10:54:17;8.43;;;2.47;;
45476;SDS011;31958;51.756;-2.556;2022-07-29T10:56:42;8.05;;;2.53;;
45476;SDS011;31958;51.756;-2.556;2022-07-29T11:01:48;8.38;;;2.50;;
45476;SDS011;31958;51.756;-2.556;2022-07-29T11:04:14;7.97;;;2.25;;
45476;SDS011;31958;51.756;-2.556;2022-07-29T11:09:24;5.72;;;1.90;;
45476;SDS011;31958;51.756;-2.556;2022-07-29T11:11:50;6.20;;;1.90;;
45476;SDS011;31958;51.756;-2.556;2022-07-29T11:14:15;10.43;;;1.80;;
45476;SDS011;31958;51.756;-2.556;2022-07-29T11:17:02;4.68;;;1.55;;
45476;SDS011;31958;51.756;-2.556;2022-07-29T11:19:27;8.68;;;1.92;;
45476;SDS011;31958;51.756;-2.556;2022-07-29T11:21:53;8.98;;;2.00;;
45476;SDS011;31958;51.756;-2.556;2022-07-29T11:26:44;6.18;;;1.98;;
45476;SDS011;31958;51.756;-2.556;2022-07-29T11:29:16;7.63;;;2.00;;
45476;SDS011;31958;51.756;-2.556;2022-07-29T11:31:42;5.57;;;2.33;;
45476;SDS011;31958;51.756;-2.556;2022-07-29T11:34:27;4.50;;;1.50;;
45476;SDS011;31958;51.756;-2.556;2022-07-29T11:39:32;5.18;;;1.90;;
45476;SDS011;31958;51.756;-2.556;2022-07-29T11:44:57;7.35;;;1.95;;
45476;SDS011;31958;51.756;-2.556;2022-07-29T11:47:27;4.35;;;1.70;;
45476;SDS011;31958;51.756;-2.556;2022-07-29T11:49:53;4.07;;;1.80;;
45476;SDS011;31958;51.756;-2.556;2022-07-29T11:52:19;5.97;;;1.50;;
45476;SDS011;31958;51.756;-2.556;2022-07-29T11:54:45;6.03;;;1.50;;
45476;SDS011;31958;51.756;-2.556;2022-07-29T11:57:12;11.73;;;1.85;;
45476;SDS011;31958;51.756;-2.556;2022-07-29T11:59:40;4.50;;;1.67;;
45476;SDS011;31958;51.756;-2.556;2022-07-29T12:02:09;5.70;;;1.63;;
45476;SDS011;31958;51.756;-2.556;2022-07-29T12:04:48;6.35;;;1.70;;
45476;SDS011;31958;51.756;-2.556;2022-07-29T12:07:13;5.43;;;2.08;;
45476;SDS011;31958;51.756;-2.556;2022-07-29T12:09:38;3.58;;;1.60;;
45476;SDS011;31958;51.756;-2.556;2022-07-29T12:12:04;5.13;;;1.60;;
45476;SDS011;31958;51.756;-2.556;2022-07-29T12:14:30;4.57;;;1.60;;
45476;SDS011;31958;51.756;-2.556;2022-07-29T12:16:56;4.18;;;1.60;;
45476;SDS011;31958;51.756;-2.556;2022-07-29T12:19:21;4.30;;;1.50;;
45476;SDS011;31958;51.756;-2.556;2022-07-29T12:21:47;4.30;;;1.33;;
45476;SDS011;31958;51.756;-2.556;2022-07-29T12:24:13;6.55;;;1.60;;
45476;SDS011;31958;51.756;-2.556;2022-07-29T12:29:15;8.02;;;1.80;;
45476;SDS011;31958;51.756;-2.556;2022-07-29T12:31:41;7.53;;;1.40;;
45476;SDS011;31958;51.756;-2.556;2022-07-29T12:34:07;8.18;;;1.60;;
45476;SDS011;31958;51.756;-2.556;2022-07-29T12:36:32;3.78;;;1.60;;
45476;SDS011;31958;51.756;-2.556;2022-07-29T12:38:58;5.45;;;1.58;;
45476;SDS011;31958;51.756;-2.556;2022-07-29T12:41:23;4.05;;;1.50;;
45476;SDS011;31958;51.756;-2.556;2022-07-29T12:43:55;7.32;;;1.48;;
45476;SDS011;31958;51.756;-2.556;2022-07-29T12:46:20;5.95;;;1.52;;
45476;SDS011;31958;51.756;-2.556;2022-07-29T12:48:49;3.53;;;1.40;;
45476;SDS011;31958;51.756;-2.556;2022-07-29T12:51:15;5.28;;;1.75;;
45476;SDS011;31958;51.756;-2.556;2022-07-29T12:53:41;4.15;;;1.27;;
45476;SDS011;31958;51.756;-2.556;2022-07-29T12:56:26;4.30;;;1.50;;
45476;SDS011;31958;51.756;-2.556;2022-07-29T12:58:51;7.78;;;1.55;;
45476;SDS011;31958;51.756;-2.556;2022-07-29T13:01:17;7.65;;;1.77;;
45476;SDS011;31958;51.756;-2.556;2022-07-29T13:06:33;3.67;;;1.35;;
45476;SDS011;31958;51.756;-2.556;2022-07-29T13:09:03;7.22;;;1.80;;
45476;SDS011;31958;51.756;-2.556;2022-07-29T13:11:37;5.88;;;1.60;;
45476;SDS011;31958;51.756;-2.556;2022-07-29T13:14:03;4.53;;;1.33;;
45476;SDS011;31958;51.756;-2.556;2022-07-29T13:16:28;5.15;;;1.55;;
45476;SDS011;31958;51.756;-2.556;2022-07-29T13:19:07;4.82;;;1.63;;
45476;SDS011;31958;51.756;-2.556;2022-07-29T13:21:32;6.18;;;1.88;;
45476;SDS011;31958;51.756;-2.556;2022-07-29T13:23:58;6.78;;;1.10;;
45476;SDS011;31958;51.756;-2.556;2022-07-29T13:26:24;8.60;;;1.80;;
45476;SDS011;31958;51.756;-2.556;2022-07-29T13:28:49;4.20;;;1.20;;
45476;SDS011;31958;51.756;-2.556;2022-07-29T13:31:14;10.07;;;1.55;;
45476;SDS011;31958;51.756;-2.556;2022-07-29T13:33:40;7.60;;;1.98;;
45476;SDS011;31958;51.756;-2.556;2022-07-29T13:36:05;4.90;;;1.50;;
45476;SDS011;31958;51.756;-2.556;2022-07-29T13:38:31;4.70;;;1.33;;
45476;SDS011;31958;51.756;-2.556;2022-07-29T13:40:56;4.35;;;1.63;;
45476;SDS011;31958;51.756;-2.556;2022-07-29T13:43:21;4.35;;;1.77;;
45476;SDS011;31958;51.756;-2.556;2022-07-29T13:45:46;10.95;;;1.58;;
45476;SDS011;31958;51.756;-2.556;2022-07-29T13:48:12;4.90;;;1.58;;
45476;SDS011;31958;51.756;-2.556;2022-07-29T13:50:37;3.58;;;1.30;;
45476;SDS011;31958;51.756;-2.556;2022-07-29T13:53:02;5.97;;;1.40;;
45476;SDS011;31958;51.756;-2.556;2022-07-29T13:55:27;4.25;;;1.25;;
45476;SDS011;31958;51.756;-2.556;2022-07-29T13:57:53;3.30;;;1.30;;
45476;SDS011;31958;51.756;-2.556;2022-07-29T14:00:18;6.72;;;1.63;;
45476;SDS011;31958;51.756;-2.556;2022-07-29T14:02:44;4.43;;;1.35;;
45476;SDS011;31958;51.756;-2.556;2022-07-29T14:05:09;3.67;;;1.42;;
45476;SDS011;31958;51.756;-2.556;2022-07-29T14:07:35;5.82;;;1.50;;
45476;SDS011;31958;51.756;-2.556;2022-07-29T14:10:00;5.65;;;1.38;;
45476;SDS011;31958;51.756;-2.556;2022-07-29T14:12:26;4.07;;;1.60;;
45476;SDS011;31958;51.756;-2.556;2022-07-29T14:14:51;4.28;;;1.60;;
45476;SDS011;31958;51.756;-2.556;2022-07-29T14:17:16;4.45;;;1.45;;
45476;SDS011;31958;51.756;-2.556;2022-07-29T14:19:42;3.33;;;1.40;;
45476;SDS011;31958;51.756;-2.556;2022-07-29T14:22:08;5.82;;;1.50;;
45476;SDS011;31958;51.756;-2.556;2022-07-29T14:24:33;3.40;;;1.40;;
45476;SDS011;31958;51.756;-2.556;2022-07-29T14:26:59;5.15;;;1.38;;
45476;SDS011;31958;51.756;-2.556;2022-07-29T14:29:24;4.03;;;1.30;;
45476;SDS011;31958;51.756;-2.556;2022-07-29T14:31:49;6.75;;;1.55;;
45476;SDS011;31958;51.756;-2.556;2022-07-29T14:34:15;6.47;;;1.60;;
45476;SDS011;31958;51.756;-2.556;2022-07-29T14:36:41;8.98;;;1.80;;
45476;SDS011;31958;51.756;-2.556;2022-07-29T14:39:06;7.82;;;1.45;;
45476;SDS011;31958;51.756;-2.556;2022-07-29T14:41:31;4.32;;;1.30;;
45476;SDS011;31958;51.756;-2.556;2022-07-29T14:43:57;4.50;;;1.40;;
45476;SDS011;31958;51.756;-2.556;2022-07-29T14:46:25;3.60;;;1.50;;
45476;SDS011;31958;51.756;-2.556;2022-07-29T14:48:50;3.53;;;1.30;;
45476;SDS011;31958;51.756;-2.556;2022-07-29T14:51:16;5.55;;;1.50;;
45476;SDS011;31958;51.756;-2.556;2022-07-29T14:53:41;4.78;;;1.33;;
45476;SDS011;31958;51.756;-2.556;2022-07-29T14:56:06;5.47;;;1.40;;
45476;SDS011;31958;51.756;-2.556;2022-07-29T14:58:31;3.05;;;1.10;;
45476;SDS011;31958;51.756;-2.556;2022-07-29T15:00:57;5.32;;;1.10;;
45476;SDS011;31958;51.756;-2.556;2022-07-29T15:03:22;7.18;;;1.20;;
45476;SDS011;31958;51.756;-2.556;2022-07-29T15:05:48;8.60;;;2.10;;